createdAt,value
2018-06-08T00:12:24.141Z,7.60
2018-06-08T00:14:52.761Z,5.90
2018-06-08T00:17:21.431Z,6.37
2018-06-08T00:19:50.066Z,7.00
2018-06-08T00:22:18.735Z,6.03
2018-06-08T00:24:48.127Z,6.60
2018-06-08T00:27:16.737Z,6.17
2018-06-08T00:29:45.395Z,6.77
2018-06-08T00:32:14.043Z,6.90
2018-06-08T00:34:42.706Z,13.67
2018-06-08T00:37:11.410Z,6.63
2018-06-08T00:39:40.065Z,6.50
2018-06-08T00:42:08.705Z,6.73
2018-06-08T00:44:37.335Z,7.77
2018-06-08T00:47:06.129Z,6.37
2018-06-08T00:49:34.752Z,7.60
2018-06-08T00:52:03.398Z,7.97
2018-06-08T00:54:32.021Z,8.27
2018-06-08T00:57:07.073Z,6.40
2018-06-08T00:59:35.711Z,6.73
2018-06-08T01:02:04.466Z,7.23
2018-06-08T01:04:33.150Z,9.57
2018-06-08T01:07:01.836Z,7.00
2018-06-08T01:09:30.511Z,9.50
2018-06-08T01:11:59.143Z,8.07
2018-06-08T01:14:32.739Z,11.43
2018-06-08T01:17:01.742Z,11.80
2018-06-08T01:19:34.011Z,8.30
2018-06-08T01:22:02.866Z,7.67
2018-06-08T01:24:31.782Z,8.10
2018-06-08T01:27:00.409Z,8.47
2018-06-08T01:29:29.065Z,7.17
2018-06-08T01:31:57.685Z,10.53
2018-06-08T01:34:26.373Z,6.70
2018-06-08T01:36:55.104Z,11.57
2018-06-08T01:39:23.793Z,6.93
2018-06-08T01:44:55.326Z,7.90
2018-06-08T01:47:24.009Z,7.27
2018-06-08T01:49:52.762Z,8.17
2018-06-08T01:52:21.431Z,7.63
2018-06-08T01:54:50.063Z,7.60
2018-06-08T01:57:18.706Z,7.73
2018-06-08T01:59:47.405Z,8.90
2018-06-08T02:02:16.089Z,8.27
2018-06-08T02:04:44.718Z,8.53
2018-06-08T02:07:13.400Z,12.23
2018-06-08T02:09:42.037Z,16.60
2018-06-08T02:12:10.695Z,8.67
2018-06-08T02:14:39.390Z,11.43
2018-06-08T02:17:08.042Z,9.47
2018-06-08T02:19:36.675Z,9.07
2018-06-08T02:22:05.337Z,7.67
2018-06-08T02:24:33.990Z,8.67
2018-06-08T02:27:02.627Z,8.23
2018-06-08T02:29:31.299Z,8.27
2018-06-08T02:31:59.930Z,13.20
2018-06-08T02:34:28.523Z,8.10
2018-06-08T02:36:57.199Z,9.23
2018-06-08T02:39:25.923Z,9.77
2018-06-08T02:41:54.562Z,8.83
2018-06-08T02:44:23.242Z,12.43
2018-06-08T02:46:51.919Z,11.90
2018-06-08T02:49:20.577Z,13.13
2018-06-08T02:51:49.222Z,11.97
2018-06-08T02:54:17.874Z,10.40
2018-06-08T02:56:46.575Z,12.70
2018-06-08T02:59:15.326Z,8.90
2018-06-08T03:01:43.998Z,8.73
2018-06-08T03:04:12.682Z,13.00
2018-06-08T03:06:41.391Z,11.80
2018-06-08T03:09:10.015Z,13.77
2018-06-08T03:11:38.656Z,11.80
2018-06-08T03:14:07.296Z,15.20
2018-06-08T03:16:35.955Z,13.03
2018-06-08T03:19:04.588Z,16.23
2018-06-08T03:21:33.225Z,17.17
2018-06-08T03:24:01.827Z,20.90
2018-06-08T03:26:30.595Z,13.50
2018-06-08T03:28:59.183Z,13.13
2018-06-08T03:31:27.819Z,14.13
2018-06-08T03:33:56.472Z,15.10
2018-06-08T03:36:25.238Z,13.43
2018-06-08T03:38:53.842Z,13.43
2018-06-08T03:41:22.506Z,14.97
2018-06-08T03:43:51.148Z,13.50
2018-06-08T03:46:19.796Z,12.47
2018-06-08T03:48:48.466Z,12.97
2018-06-08T03:51:17.125Z,13.23
2018-06-08T03:53:45.706Z,14.47
2018-06-08T03:56:14.424Z,16.03
2018-06-08T03:58:43.082Z,13.50
2018-06-08T04:01:11.741Z,13.50
2018-06-08T04:03:40.430Z,17.77
2018-06-08T04:06:09.110Z,15.97
2018-06-08T04:08:37.718Z,13.53
2018-06-08T04:11:06.414Z,19.30
2018-06-08T04:13:35.102Z,14.63
2018-06-08T04:16:03.710Z,16.03
2018-06-08T04:18:32.343Z,16.17
2018-06-08T04:21:00.987Z,18.60
2018-06-08T04:23:29.660Z,17.33
2018-06-08T04:25:59.190Z,16.40
2018-06-08T04:28:27.831Z,16.60
2018-06-08T04:30:56.475Z,15.93
2018-06-08T04:33:25.897Z,16.90
2018-06-08T04:35:54.542Z,18.53
2018-06-08T04:38:23.199Z,18.03
2018-06-08T04:40:51.843Z,17.30
2018-06-08T04:43:20.493Z,15.50
2018-06-08T04:45:49.181Z,19.63
2018-06-08T04:48:17.835Z,16.83
2018-06-08T04:50:46.450Z,15.53
2018-06-08T04:53:15.110Z,14.67
2018-06-08T04:55:43.745Z,16.63
2018-06-08T04:58:12.365Z,20.90
2018-06-08T05:00:41.005Z,15.57
2018-06-08T05:03:09.659Z,14.63
2018-06-08T05:05:38.282Z,17.90
2018-06-08T05:08:07.040Z,15.17
2018-06-08T05:10:35.684Z,17.33
2018-06-08T05:13:04.318Z,21.23
2018-06-08T05:15:33.001Z,19.67
2018-06-08T05:18:01.704Z,15.63
2018-06-08T05:20:30.317Z,19.60
2018-06-08T05:22:58.903Z,14.63
2018-06-08T05:25:27.569Z,20.00
2018-06-08T05:27:56.158Z,19.07
2018-06-08T05:30:26.246Z,16.80
2018-06-08T05:32:54.894Z,16.93
2018-06-08T05:35:23.649Z,17.33
2018-06-08T05:37:52.397Z,22.40
2018-06-08T05:40:21.001Z,17.63
2018-06-08T05:42:49.606Z,15.87
2018-06-08T05:45:18.227Z,17.03
2018-06-08T05:47:46.831Z,21.90
2018-06-08T05:50:15.434Z,23.23
2018-06-08T05:52:44.005Z,15.10
2018-06-08T05:55:12.692Z,20.43
2018-06-08T05:57:41.281Z,22.50
2018-06-08T06:00:09.895Z,19.20
2018-06-08T06:02:38.474Z,20.30
2018-06-08T06:05:07.077Z,16.10
2018-06-08T06:07:35.720Z,20.43
2018-06-08T06:10:05.054Z,16.57
2018-06-08T06:12:33.670Z,15.67
2018-06-08T06:15:02.289Z,18.10
2018-06-08T06:17:30.981Z,25.47
2018-06-08T06:19:59.634Z,16.70
2018-06-08T06:22:28.298Z,19.53
2018-06-08T06:24:56.945Z,19.53
2018-06-08T06:27:25.571Z,20.47
2018-06-08T06:29:54.181Z,21.17
2018-06-08T06:32:22.844Z,29.00
2018-06-08T06:34:51.426Z,23.00
2018-06-08T06:37:20.004Z,27.37
2018-06-08T06:39:48.646Z,15.20
2018-06-08T06:42:17.274Z,15.50
2018-06-08T06:44:45.877Z,17.63
2018-06-08T06:47:14.479Z,19.73
2018-06-08T06:49:43.066Z,18.57
2018-06-08T06:52:11.722Z,15.93
2018-06-08T06:54:40.292Z,15.90
2018-06-08T06:57:08.922Z,14.60
2018-06-08T06:59:37.481Z,18.00
2018-06-08T07:02:06.182Z,15.77
2018-06-08T07:04:34.775Z,15.03
2018-06-08T07:07:03.405Z,24.13
2018-06-08T07:09:32.009Z,14.67
2018-06-08T07:12:00.609Z,14.77
2018-06-08T07:14:29.258Z,14.97
2018-06-08T07:16:57.841Z,19.40
2018-06-08T07:19:26.503Z,19.20
2018-06-08T07:21:55.082Z,22.97
2018-06-08T07:24:23.709Z,17.40
2018-06-08T07:26:52.316Z,28.00
2018-06-08T07:29:20.942Z,17.67
2018-06-08T07:31:49.692Z,17.17
2018-06-08T07:34:18.185Z,22.03
2018-06-08T07:36:46.784Z,21.43
2018-06-08T07:39:15.361Z,16.30
2018-06-08T07:41:43.953Z,14.53
2018-06-08T07:44:12.570Z,16.60
2018-06-08T07:46:41.175Z,17.00
2018-06-08T07:49:09.769Z,17.83
2018-06-08T07:51:38.422Z,22.37
2018-06-08T07:54:07.034Z,18.80
2018-06-08T07:56:35.612Z,15.40
2018-06-08T07:59:04.267Z,21.33
2018-06-08T08:01:32.896Z,16.80
2018-06-08T08:04:01.486Z,16.73
2018-06-08T08:06:30.110Z,20.90
2018-06-08T08:08:58.726Z,16.80
2018-06-08T08:11:27.329Z,18.13
2018-06-08T08:13:56.022Z,16.93
2018-06-08T08:16:24.579Z,15.07
2018-06-08T08:18:53.202Z,18.00
2018-06-08T08:21:21.754Z,15.00
2018-06-08T08:23:50.264Z,13.97
2018-06-08T08:26:18.947Z,13.47
2018-06-08T08:28:47.463Z,14.63
2018-06-08T08:31:15.983Z,16.67
2018-06-08T08:33:44.506Z,14.30
2018-06-08T08:36:13.043Z,13.07
2018-06-08T08:38:41.601Z,14.57
2018-06-08T08:41:10.106Z,14.70
2018-06-08T08:43:38.665Z,18.40
2018-06-08T08:46:07.262Z,15.87
2018-06-08T08:48:35.761Z,13.27
2018-06-08T08:51:04.294Z,15.73
2018-06-08T08:53:32.841Z,25.23
2018-06-08T08:56:01.353Z,14.27
2018-06-08T08:58:29.885Z,15.10
2018-06-08T09:00:58.371Z,12.10
2018-06-08T09:03:26.897Z,16.90
2018-06-08T09:05:55.458Z,14.27
2018-06-08T09:08:24.010Z,12.70
2018-06-08T09:10:52.518Z,18.40
2018-06-08T09:13:21.029Z,12.03
2018-06-08T09:15:49.573Z,15.77
2018-06-08T09:18:18.059Z,16.73
2018-06-08T09:20:46.593Z,15.53
2018-06-08T09:23:15.115Z,13.03
2018-06-08T09:25:43.617Z,14.20
2018-06-08T09:28:12.144Z,16.53
2018-06-08T09:30:40.730Z,13.93
2018-06-08T09:33:09.283Z,11.60
2018-06-08T09:35:37.841Z,12.93
2018-06-08T09:38:06.462Z,13.57
2018-06-08T09:40:35.059Z,12.33
2018-06-08T09:43:03.621Z,11.70
2018-06-08T09:45:32.117Z,11.83
2018-06-08T09:48:00.621Z,17.50
2018-06-08T09:50:29.105Z,20.33
2018-06-08T09:52:57.583Z,10.57
2018-06-08T09:55:26.104Z,10.73
2018-06-08T09:57:54.629Z,12.33
2018-06-08T10:00:28.392Z,14.87
2018-06-08T10:02:56.965Z,11.67
2018-06-08T10:05:25.483Z,14.50
2018-06-08T10:07:54.043Z,12.10
2018-06-08T10:10:22.550Z,12.23
2018-06-08T10:12:51.044Z,13.90
2018-06-08T10:15:19.621Z,16.73
2018-06-08T10:17:48.130Z,15.37
2018-06-08T10:20:16.622Z,20.10
2018-06-08T10:22:45.174Z,13.87
2018-06-08T10:25:13.714Z,13.97
2018-06-08T10:27:42.221Z,12.70
2018-06-08T10:30:10.729Z,13.90
2018-06-08T10:32:42.038Z,19.27
2018-06-08T10:35:10.633Z,12.07
2018-06-08T10:37:39.192Z,16.33
2018-06-08T10:40:07.695Z,13.10
2018-06-08T10:42:36.200Z,11.87
2018-06-08T10:45:04.930Z,11.10
2018-06-08T10:47:33.441Z,11.30
2018-06-08T10:50:01.999Z,16.27
2018-06-08T10:52:30.520Z,11.67
2018-06-08T10:54:59.040Z,11.80
2018-06-08T10:57:30.726Z,11.53
2018-06-08T10:59:59.393Z,11.27
2018-06-08T11:02:27.897Z,13.37
2018-06-08T11:04:57.102Z,11.90
2018-06-08T11:07:25.627Z,14.50
2018-06-08T11:09:54.162Z,12.77
2018-06-08T11:12:22.728Z,13.00
2018-06-08T11:14:51.226Z,10.83
2018-06-08T11:17:19.820Z,10.23
2018-06-08T11:19:48.363Z,13.77
2018-06-08T11:22:16.854Z,9.60
2018-06-08T11:24:45.382Z,10.60
2018-06-08T11:27:13.893Z,9.23
2018-06-08T11:29:42.394Z,8.60
2018-06-08T11:32:10.930Z,9.00
2018-06-08T11:34:39.421Z,9.03
2018-06-08T11:37:08.537Z,10.50
2018-06-08T11:39:37.070Z,10.40
2018-06-08T11:42:05.634Z,9.30
2018-06-08T11:44:34.193Z,10.90
2018-06-08T11:47:02.688Z,11.87
2018-06-08T11:49:31.205Z,8.93
2018-06-08T11:51:59.755Z,9.70
2018-06-08T11:54:28.298Z,8.97
2018-06-08T11:56:56.810Z,11.07
2018-06-08T11:59:26.038Z,13.43
2018-06-08T12:01:54.576Z,10.53
2018-06-08T12:04:23.084Z,13.50
2018-06-08T12:06:51.573Z,9.03
2018-06-08T12:09:20.111Z,11.97
2018-06-08T12:11:48.688Z,8.97
2018-06-08T12:14:17.280Z,8.17
2018-06-08T12:16:45.763Z,7.90
2018-06-08T12:19:14.297Z,7.80
2018-06-08T12:21:42.912Z,7.97
2018-06-08T12:24:11.527Z,7.90
2018-06-08T12:26:40.122Z,8.53
2018-06-08T12:29:08.726Z,11.73
2018-06-08T12:31:37.354Z,9.00
2018-06-08T12:34:06.062Z,8.73
2018-06-08T12:36:35.456Z,8.40
2018-06-08T12:39:04.444Z,10.27
2018-06-08T12:41:33.069Z,7.00
2018-06-08T12:44:01.725Z,8.40
2018-06-08T12:46:30.319Z,9.37
2018-06-08T12:48:58.950Z,6.90
2018-06-08T12:51:27.567Z,8.30
2018-06-08T12:53:56.198Z,6.13
2018-06-08T12:56:24.837Z,8.90
2018-06-08T12:58:53.501Z,6.80
2018-06-08T13:01:22.107Z,7.50
2018-06-08T13:03:50.730Z,5.67
2018-06-08T13:06:19.416Z,7.27
2018-06-08T13:08:48.034Z,9.40
2018-06-08T13:11:16.650Z,6.77
2018-06-08T13:13:45.279Z,6.27
2018-06-08T13:16:14.056Z,5.70
2018-06-08T13:18:42.653Z,6.50
2018-06-08T13:21:11.335Z,10.20
2018-06-08T13:23:39.958Z,5.67
2018-06-08T13:26:08.592Z,6.10
2018-06-08T13:28:37.350Z,7.10
2018-06-08T13:31:06.030Z,8.80
2018-06-08T13:33:34.718Z,10.23
2018-06-08T13:36:03.359Z,5.90
2018-06-08T13:38:31.938Z,6.87
2018-06-08T13:41:00.857Z,7.47
2018-06-08T13:43:29.441Z,8.53
2018-06-08T13:45:58.034Z,6.67
2018-06-08T13:48:26.801Z,7.30
2018-06-08T13:50:55.506Z,7.70
2018-06-08T13:53:24.162Z,5.27
2018-06-08T13:55:52.818Z,5.60
2018-06-08T13:58:21.388Z,10.70
2018-06-08T14:00:49.998Z,10.27
2018-06-08T14:03:18.571Z,9.37
2018-06-08T14:05:47.154Z,14.00
2018-06-08T14:08:16.859Z,9.10
2018-06-08T14:10:46.270Z,6.30
2018-06-08T14:13:14.955Z,7.37
2018-06-08T14:15:43.590Z,5.03
2018-06-08T14:18:12.183Z,7.63
2018-06-08T14:20:40.794Z,5.00
2018-06-08T14:23:09.415Z,6.92
2018-06-08T14:25:37.989Z,5.08
2018-06-08T14:28:06.734Z,4.50
2018-06-08T14:30:35.446Z,4.83
2018-06-08T14:33:04.182Z,5.05
2018-06-08T14:35:32.872Z,4.85
2018-06-08T14:38:01.545Z,5.58
2018-06-08T14:40:30.354Z,6.72
2018-06-08T14:42:59.006Z,7.58
2018-06-08T14:45:27.597Z,4.55
2018-06-08T14:47:56.218Z,5.50
2018-06-08T14:50:24.846Z,4.95
2018-06-08T14:52:53.491Z,9.38
2018-06-08T14:55:22.139Z,7.08
2018-06-08T14:57:50.787Z,5.58
2018-06-08T15:00:19.406Z,7.62
2018-06-08T15:02:48.069Z,5.40
2018-06-08T15:05:16.730Z,6.83
2018-06-08T15:07:45.363Z,5.70
2018-06-08T15:10:14.006Z,7.08
2018-06-08T15:12:42.805Z,5.22
2018-06-08T15:15:11.447Z,4.62
2018-06-08T15:17:40.125Z,5.10
2018-06-08T15:20:08.864Z,4.42
2018-06-08T15:22:38.202Z,5.40
2018-06-08T15:25:06.897Z,4.80
2018-06-08T15:27:35.551Z,7.62
2018-06-08T15:30:04.270Z,5.75
2018-06-08T15:32:32.898Z,4.90
2018-06-08T15:35:01.531Z,6.30
2018-06-08T15:37:30.135Z,4.95
2018-06-08T15:39:58.733Z,5.72
2018-06-08T15:42:27.449Z,7.08
2018-06-08T15:44:56.083Z,5.80
2018-06-08T15:47:24.763Z,6.37
2018-06-08T15:49:53.399Z,6.25
2018-06-08T15:52:22.053Z,9.90
2018-06-08T15:54:50.690Z,8.13
2018-06-08T15:57:19.306Z,9.53
2018-06-08T15:59:47.939Z,6.78
2018-06-08T16:02:18.135Z,5.45
2018-06-08T16:04:46.835Z,4.92
2018-06-08T16:07:15.430Z,6.37
2018-06-08T16:09:44.065Z,5.95
2018-06-08T16:12:12.800Z,6.05
2018-06-08T16:14:41.442Z,6.00
2018-06-08T16:17:10.065Z,6.03
2018-06-08T16:19:38.778Z,6.05
2018-06-08T16:22:07.442Z,6.03
2018-06-08T16:24:36.134Z,7.78
2018-06-08T16:27:04.790Z,6.50
2018-06-08T16:29:33.480Z,7.87
2018-06-08T16:32:02.139Z,6.50
2018-06-08T16:34:30.852Z,7.20
2018-06-08T16:36:59.470Z,6.70
2018-06-08T16:39:28.129Z,7.97
2018-06-08T16:41:56.789Z,9.70
2018-06-08T16:44:25.412Z,7.10
2018-06-08T16:46:54.090Z,7.50
2018-06-08T16:49:23.048Z,7.93
2018-06-08T16:51:51.749Z,6.28
2018-06-08T16:54:20.418Z,7.07
2018-06-08T16:56:49.127Z,6.23
2018-06-08T16:59:17.765Z,6.53
2018-06-08T17:01:46.399Z,6.60
2018-06-08T17:04:15.086Z,6.47
2018-06-08T17:06:43.714Z,13.77
2018-06-08T17:09:12.362Z,9.60
2018-06-08T17:11:41.054Z,9.40
2018-06-08T17:14:09.681Z,7.70
2018-06-08T17:16:38.355Z,9.50
2018-06-08T17:19:06.982Z,7.73
2018-06-08T17:21:35.628Z,6.30
2018-06-08T17:24:04.347Z,7.30
2018-06-08T17:26:32.997Z,6.80
2018-06-08T17:29:01.600Z,8.30
2018-06-08T17:31:30.234Z,7.40
2018-06-08T17:33:58.861Z,7.20
2018-06-08T17:36:27.508Z,8.23
2018-06-08T17:38:56.261Z,8.60
2018-06-08T17:41:24.927Z,7.90
2018-06-08T17:43:53.606Z,7.93
2018-06-08T17:46:22.273Z,9.13
2018-06-08T17:48:50.976Z,7.60
2018-06-08T17:51:19.642Z,10.33
2018-06-08T17:53:48.303Z,8.57
2018-06-08T17:56:16.977Z,10.90
2018-06-08T17:58:45.618Z,9.30
2018-06-08T18:01:14.284Z,11.97
2018-06-08T18:03:43.088Z,9.73
2018-06-08T18:06:11.747Z,9.70
2018-06-08T18:08:40.435Z,9.30
2018-06-08T18:11:09.113Z,9.83
2018-06-08T18:13:37.755Z,10.57
2018-06-08T18:16:06.675Z,18.30
2018-06-08T18:18:35.725Z,8.93
2018-06-08T18:21:04.386Z,11.07
2018-06-08T18:23:33.264Z,10.53
2018-06-08T18:26:01.882Z,12.37
2018-06-08T18:28:31.056Z,10.50
2018-06-08T18:30:59.721Z,12.10
2018-06-08T18:33:28.514Z,14.43
2018-06-08T18:35:57.235Z,12.47
2018-06-08T18:38:26.014Z,11.40
2018-06-08T18:40:54.709Z,11.50
2018-06-08T18:43:23.597Z,12.50
2018-06-08T18:45:52.815Z,12.07
2018-06-08T18:48:22.110Z,12.70
2018-06-08T18:50:50.841Z,11.73
2018-06-08T18:53:19.650Z,11.87
2018-06-08T18:55:48.414Z,12.53
2018-06-08T18:58:17.126Z,12.50
2018-06-08T19:00:45.817Z,13.70
2018-06-08T19:03:14.518Z,12.87
2018-06-08T19:05:43.255Z,13.40
2018-06-08T19:08:12.000Z,15.10
2018-06-08T19:10:40.642Z,13.40
2018-06-08T19:13:09.341Z,12.90
2018-06-08T19:15:38.054Z,14.27
2018-06-08T19:18:06.814Z,14.80
2018-06-08T19:20:35.469Z,13.50
2018-06-08T19:23:04.197Z,15.00
2018-06-08T19:25:32.934Z,18.27
2018-06-08T19:28:01.614Z,15.83
2018-06-08T19:30:30.240Z,19.10
2018-06-08T19:32:58.926Z,19.00
2018-06-08T19:35:27.722Z,15.53
2018-06-08T19:37:56.458Z,17.07
2018-06-08T19:40:25.144Z,17.97
2018-06-08T19:42:53.814Z,16.67
2018-06-08T19:45:22.466Z,15.83
2018-06-08T19:47:51.169Z,18.80
2018-06-08T19:50:19.838Z,18.63
2018-06-08T19:52:48.566Z,18.23
2018-06-08T19:55:17.302Z,19.57
2018-06-08T19:57:45.983Z,20.13
2018-06-08T20:00:14.698Z,20.93
2018-06-08T20:02:43.366Z,22.27
2018-06-08T20:05:12.063Z,21.50
2018-06-08T20:07:40.822Z,23.43
2018-06-08T20:10:10.823Z,20.50
2018-06-08T20:12:39.558Z,21.27
2018-06-08T20:15:08.430Z,21.77
2018-06-08T20:17:37.171Z,20.23
2018-06-08T20:20:06.581Z,21.20
2018-06-08T20:22:35.301Z,24.87
2018-06-08T20:25:04.065Z,22.03
2018-06-08T20:27:32.810Z,27.97
2018-06-08T20:30:01.643Z,21.87
2018-06-08T20:32:30.368Z,23.63
2018-06-08T20:34:59.118Z,22.83
2018-06-08T20:37:27.880Z,21.93
2018-06-08T20:39:56.589Z,23.20
2018-06-08T20:42:25.279Z,23.20
2018-06-08T20:44:54.005Z,22.17
2018-06-08T20:47:22.677Z,24.00
2018-06-08T20:49:51.339Z,27.27
2018-06-08T20:52:20.113Z,24.27
2018-06-08T20:54:48.850Z,25.57
2018-06-08T20:57:25.112Z,25.10
2018-06-08T20:59:54.076Z,23.53
2018-06-08T21:02:22.981Z,23.67
2018-06-08T21:04:51.590Z,23.57
2018-06-08T21:07:20.363Z,24.83
2018-06-08T21:09:49.085Z,26.60
2018-06-08T21:12:17.839Z,24.20
2018-06-08T21:14:46.575Z,22.70
2018-06-08T21:17:15.329Z,25.00
2018-06-08T21:19:44.135Z,25.43
2018-06-08T21:22:13.114Z,23.47
2018-06-08T21:24:41.873Z,25.80
2018-06-08T21:27:11.603Z,24.20
2018-06-08T21:29:41.096Z,24.90
2018-06-08T21:32:09.787Z,22.83
2018-06-08T21:34:38.753Z,26.70
2018-06-08T21:37:07.399Z,26.03
2018-06-08T21:39:36.051Z,28.50
2018-06-08T21:42:04.807Z,24.90
2018-06-08T21:44:33.468Z,25.07
2018-06-08T21:47:02.080Z,27.10
2018-06-08T21:49:30.722Z,25.87
2018-06-08T21:51:59.389Z,25.97
2018-06-08T21:54:28.470Z,30.83
2018-06-08T21:56:57.155Z,26.37
2018-06-08T21:59:25.790Z,26.13
2018-06-08T22:01:54.531Z,28.10
2018-06-08T22:04:23.163Z,27.87
2018-06-08T22:06:51.798Z,28.30
2018-06-08T22:09:20.516Z,29.67
2018-06-08T22:11:49.197Z,28.57
2018-06-08T22:14:18.004Z,28.70
2018-06-08T22:16:46.674Z,29.40
2018-06-08T22:19:15.395Z,27.40
2018-06-08T22:21:44.030Z,31.37
2018-06-08T22:24:13.040Z,27.67
2018-06-08T22:26:41.696Z,27.57
2018-06-08T22:29:10.332Z,26.93
2018-06-08T22:31:38.978Z,27.60
2018-06-08T22:34:07.752Z,31.73
2018-06-08T22:36:36.494Z,26.10
2018-06-08T22:39:07.363Z,27.43
2018-06-08T22:41:36.042Z,28.20
2018-06-08T22:44:04.784Z,30.10
2018-06-08T22:46:33.402Z,28.77
2018-06-08T22:49:02.090Z,28.50
2018-06-08T22:51:30.868Z,28.20
2018-06-08T22:53:59.614Z,28.57
2018-06-08T22:56:28.325Z,27.90
2018-06-08T22:58:58.316Z,29.13
2018-06-08T23:01:27.011Z,28.07
2018-06-08T23:03:55.747Z,25.87
2018-06-08T23:06:24.381Z,26.67
2018-06-08T23:08:53.157Z,28.30
2018-06-08T23:11:21.933Z,27.97
2018-06-08T23:13:50.670Z,27.87
2018-06-08T23:16:19.392Z,28.93
2018-06-08T23:18:48.793Z,27.90
2018-06-08T23:21:17.549Z,28.03
2018-06-08T23:23:46.201Z,32.40
2018-06-08T23:26:14.864Z,36.33
2018-06-08T23:28:43.587Z,43.13
2018-06-08T23:31:12.267Z,20.97
2018-06-08T23:33:40.933Z,34.37
2018-06-08T23:36:09.647Z,29.50
2018-06-08T23:38:38.320Z,15.37
2018-06-08T23:41:07.009Z,28.80
2018-06-08T23:43:35.712Z,8.30
2018-06-08T23:46:04.371Z,7.83
2018-06-08T23:48:33.031Z,14.13
2018-06-08T23:51:01.752Z,7.03
2018-06-08T23:53:30.379Z,11.07
2018-06-08T23:55:59.060Z,9.23
2018-06-08T23:58:27.722Z,7.00
